Sawyer, Washington
Current Conditions -  °F | °C
As of 1:53 PM on Tuesday 21 Oct 2014 (Local Time) from KYKM Reporting Station
Scattered Clouds Scattered Clouds  
Wind Chill: 64°   Ceiling: Unl
Heat Index: 64°   Visibility: 10mi
Dew Point: 45°   Wind: 7mph
Humidity: 50%   Direction: NA
Pressure: 29.92"   Gusts: NA
Location:  46.4639°N, 120.412°W
Report Text: KYKM 212053Z VRB06KT 10SM SCT060 18/07 A2992 RMK AO2 SLP132 T01780072 58006
Loading
Personal Weather Stations






























Interactive Weather Map
Tropical Storm Tracking
New forecast layout! Learn more

10-Day Weather Forecast

Advertisements
Track Severe Weather on mobile